Time;durP1;ratioP1;P1;durP2;ratioP2;P2;SDS_P1;SDS_P2;PMS_P1;PMS_P2;Temp;Humidity;BMP_temperature;BMP_pressure;BME280_temperature;BME280_humidity;BME280_pressure;Samples;Min_cycle;Max_cycle;Signal;HPM_P1;HPM_P2
2023/09/05 04:00:50;;;;;;;0.60;0.17;;;20.10;22.30;;;;;;5657396;23;20540;-74
2023/09/05 04:03:18;;;;;;;0.60;0.20;;;20.10;30.00;;;;;;4878581;29;20589;-75
2023/09/05 04:05:47;;;;;;;0.60;0.20;;;19.80;25.40;;;;;;4879462;29;20464;-75
2023/09/05 04:08:15;;;;;;;0.60;0.10;;;19.70;26.90;;;;;;4880093;29;20951;-76
2023/09/05 04:10:43;;;;;;;0.60;0.10;;;19.70;27.30;;;;;;4880748;29;20933;-76
2023/09/05 04:13:11;;;;;;;0.60;0.10;;;19.60;28.40;;;;;;4880837;29;20462;-75
2023/09/05 04:15:39;;;;;;;0.60;0.10;;;19.60;28.70;;;;;;4882182;29;20560;-75
2023/09/05 04:18:09;;;;;;;0.60;0.10;;;19.50;29.20;;;;;;4889290;29;20464;-75
2023/09/05 04:20:36;;;;;;;0.60;0.13;;;19.50;29.60;;;;;;4887734;29;20480;-74
2023/09/05 04:23:05;;;;;;;0.60;0.20;;;;;;;;;;4884048;29;20541;-75
2023/09/05 04:25:40;;;;;;;0.60;0.10;;;19.40;30.20;;;;;;4881200;29;20458;-76
2023/09/05 04:28:08;;;;;;;0.60;0.20;;;19.40;31.40;;;;;;4880288;29;20526;-76
2023/09/05 04:30:37;;;;;;;0.60;0.10;;;19.40;31.70;;;;;;4878730;29;20528;-75
2023/09/05 04:33:06;;;;;;;0.60;0.10;;;19.30;32.40;;;;;;4877659;29;20482;-75
2023/09/05 04:35:37;;;;;;;0.60;0.17;;;19.30;31.30;;;;;;4879119;29;20453;-75
2023/09/05 04:38:06;;;;;;;0.60;0.10;;;19.30;42.20;;;;;;4879046;29;20823;-75
2023/09/05 04:40:34;;;;;;;0.70;0.63;;;19.20;31.30;;;;;;4877575;29;20485;-74
2023/09/05 04:43:03;;;;;;;0.60;0.20;;;19.30;41.60;;;;;;4876232;29;20486;-75
2023/09/05 04:45:31;;;;;;;0.60;0.10;;;19.20;30.90;;;;;;4878678;29;20444;-75
2023/09/05 04:47:59;;;;;;;0.60;0.10;;;19.20;30.90;;;;;;4879417;29;20462;-75
2023/09/05 04:50:27;;;;;;;0.60;0.20;;;19.20;30.70;;;;;;4880554;29;20888;-75
2023/09/05 04:52:57;;;;;;;0.60;0.10;;;19.20;30.00;;;;;;4879752;29;20444;-75
2023/09/05 04:55:25;;;;;;;0.60;0.10;;;19.20;29.90;;;;;;4880066;29;20492;-75
2023/09/05 04:57:54;;;;;;;0.60;0.10;;;19.30;29.50;;;;;;4878690;29;20486;-75
2023/09/05 05:00:23;;;;;;;0.60;0.10;;;19.20;28.20;;;;;;4878722;29;20487;-75
2023/09/05 05:02:51;;;;;;;0.60;0.10;;;19.20;28.40;;;;;;4878746;29;20570;-76
2023/09/05 05:05:19;;;;;;;0.60;0.10;;;19.20;28.30;;;;;;4869630;29;20462;-76
2023/09/05 05:07:47;;;;;;;0.60;0.10;;;19.20;28.20;;;;;;4860972;29;20464;-75
2023/09/05 05:10:17;;;;;;;0.80;0.67;;;19.20;28.50;;;;;;4871507;29;20476;-74
2023/09/05 05:12:45;;;;;;;0.60;0.20;;;19.20;28.90;;;;;;4880020;29;20975;-76
2023/09/05 05:15:14;;;;;;;0.60;0.20;;;19.10;29.70;;;;;;4880133;29;20453;-75
2023/09/05 05:17:42;;;;;;;0.60;0.10;;;19.20;29.40;;;;;;4880716;29;20480;-74
2023/09/05 05:20:10;;;;;;;0.60;0.10;;;;;;;;;;4878843;29;20944;-76
2023/09/05 05:22:39;;;;;;;0.60;0.10;;;19.20;28.30;;;;;;4879697;29;20495;-75
2023/09/05 05:25:08;;;;;;;0.60;0.20;;;19.20;27.50;;;;;;4876854;29;20456;-74
2023/09/05 05:27:37;;;;;;;0.60;0.10;;;19.20;26.40;;;;;;4870524;29;20464;-76
2023/09/05 05:30:07;;;;;;;0.60;0.10;;;19.20;26.50;;;;;;4876863;29;20532;-74
2023/09/05 05:32:34;;;;;;;0.60;0.17;;;19.20;26.60;;;;;;4878075;29;20568;-75
2023/09/05 05:35:03;;;;;;;0.60;0.20;;;16.40;23.70;;;;;;4877876;29;20458;-75
2023/09/05 05:37:31;;;;;;;0.60;0.20;;;19.30;34.20;;;;;;4872964;29;20594;-75
2023/09/05 05:39:59;;;;;;;0.70;0.30;;;19.20;33.30;;;;;;4881813;29;20543;-77
2023/09/05 05:42:27;;;;;;;0.60;0.20;;;19.20;24.00;;;;;;4884161;29;20555;-75
2023/09/05 05:44:56;;;;;;;0.60;0.20;;;19.20;24.20;;;;;;4879477;29;20457;-76
2023/09/05 05:47:24;;;;;;;0.60;0.10;;;19.20;25.30;;;;;;4880005;29;20456;-76
2023/09/05 05:49:52;;;;;;;0.60;0.10;;;19.30;25.40;;;;;;4879363;29;20483;-75
2023/09/05 05:52:20;;;;;;;0.60;0.10;;;19.30;25.90;;;;;;4879111;29;20554;-77
2023/09/05 05:54:48;;;;;;;6.47;6.03;;;;;;;;;;4876307;29;20504;-75
2023/09/05 05:57:17;;;;;;;0.60;0.10;;;;;;;;;;4881044;29;20505;-75
2023/09/05 05:59:45;;;;;;;0.60;0.13;;;19.40;24.70;;;;;;4877788;29;20457;-77
2023/09/05 06:02:15;;;;;;;0.60;0.20;;;19.50;26.40;;;;;;4883934;29;21031;-76
2023/09/05 06:04:43;;;;;;;0.60;0.20;;;19.50;36.20;;;;;;4885720;29;20449;-75
2023/09/05 06:07:11;;;;;;;0.60;0.10;;;19.60;26.80;;;;;;4874478;29;20457;-76
2023/09/05 06:09:41;;;;;;;0.60;0.10;;;19.50;36.20;;;;;;4871867;29;20459;-75
2023/09/05 06:12:09;;;;;;;0.60;0.10;;;19.60;25.40;;;;;;4867604;29;20533;-75
2023/09/05 06:14:37;;;;;;;0.60;0.13;;;;;;;;;;4880164;29;20456;-76
2023/09/05 06:17:05;;;;;;;0.60;0.10;;;19.70;25.50;;;;;;4882884;29;20523;-77
2023/09/05 06:19:35;;;;;;;0.60;0.10;;;19.80;36.90;;;;;;4875429;29;20536;-75
2023/09/05 06:22:03;;;;;;;0.60;0.20;;;19.80;24.70;;;;;;4868303;29;20483;-75
2023/09/05 06:24:32;;;;;;;2.90;1.90;;;19.80;24.20;;;;;;4875468;29;20481;-75
2023/09/05 06:26:59;;;;;;;1.73;1.63;;;19.80;33.10;;;;;;4876618;29;20528;-76
2023/09/05 06:29:28;;;;;;;1.40;1.30;;;20.00;26.80;;;;;;4882209;29;20460;-75
2023/09/05 06:31:56;;;;;;;0.60;0.10;;;20.00;25.40;;;;;;4883213;29;20481;-76
2023/09/05 06:34:24;;;;;;;0.60;0.20;;;21.00;27.00;;;;;;4881988;29;20449;-76
2023/09/05 06:36:54;;;;;;;0.60;0.20;;;20.00;36.40;;;;;;4868630;29;20462;-74
2023/09/05 06:39:22;;;;;;;0.60;0.10;;;;;;;;;;4874186;29;20496;-75
2023/09/05 06:41:50;;;;;;;0.60;0.10;;;20.10;27.60;;;;;;4867427;29;21066;-75
2023/09/05 06:44:18;;;;;;;0.60;0.10;;;20.10;29.50;;;;;;4864691;29;20498;-75
2023/09/05 06:46:46;;;;;;;0.60;0.10;;;20.10;40.10;;;;;;4877550;29;20470;-77
2023/09/05 06:49:15;;;;;;;0.60;0.10;;;;;;;;;;4882776;29;20461;-75
2023/09/05 06:51:43;;;;;;;0.60;0.10;;;;;;;;;;4870038;29;21005;-75
2023/09/05 06:54:13;;;;;;;0.60;0.10;;;20.20;25.30;;;;;;4866460;29;20832;-76
2023/09/05 06:56:41;;;;;;;1.03;0.87;;;20.20;23.00;;;;;;4881193;29;20456;-76
2023/09/05 06:59:17;;;;;;;0.60;0.10;;;20.20;22.50;;;;;;4879652;29;20512;-75
2023/09/05 07:01:46;;;;;;;0.60;0.20;;;;;;;;;;4874936;29;20556;-75
2023/09/05 07:04:14;;;;;;;0.60;0.20;;;20.20;20.20;;;;;;4869797;29;20966;-74
2023/09/05 07:06:42;;;;;;;0.60;0.10;;;;;;;;;;4866472;29;20455;-74
2023/09/05 07:09:13;;;;;;;0.60;0.17;;;20.20;18.10;;;;;;4871353;29;20489;-75
2023/09/05 07:11:43;;;;;;;0.60;0.10;;;;;;;;;;4877373;29;20483;-76
2023/09/05 07:14:11;;;;;;;0.60;0.10;;;20.40;19.80;;;;;;4869949;29;20537;-76
2023/09/05 07:16:43;;;;;;;0.83;0.83;;;20.40;19.80;;;;;;4867822;29;20450;-75
2023/09/05 07:19:13;;;;;;;0.60;0.20;;;;;;;;;;4878489;29;20455;-74
2023/09/05 07:21:41;;;;;;;0.60;0.20;;;20.40;20.10;;;;;;4882823;29;20538;-76
2023/09/05 07:24:13;;;;;;;0.60;0.20;;;20.50;21.00;;;;;;4864969;29;20577;-76
2023/09/05 07:26:46;;;;;;;0.60;0.10;;;20.50;19.80;;;;;;4880948;29;20544;-75
2023/09/05 07:29:15;;;;;;;0.60;0.10;;;20.50;19.40;;;;;;4891619;29;20488;-75
2023/09/05 07:31:43;;;;;;;0.60;0.10;;;20.60;19.20;;;;;;4877567;29;20499;-74
2023/09/05 07:34:11;;;;;;;0.60;0.10;;;20.60;19.70;;;;;;4862482;29;20954;-75
2023/09/05 07:36:40;;;;;;;1.90;0.57;;;20.70;20.30;;;;;;4862481;29;20943;-76
2023/09/05 07:39:10;;;;;;;0.60;0.10;;;20.70;17.60;;;;;;4869892;29;20458;-76
2023/09/05 07:41:40;;;;;;;0.60;0.20;;;20.70;17.00;;;;;;4869338;29;20483;-76
2023/09/05 07:44:08;;;;;;;0.60;0.20;;;20.70;14.80;;;;;;4864407;29;21588;-76
2023/09/05 07:46:36;;;;;;;0.60;0.10;;;20.70;15.00;;;;;;4876280;29;20526;-74
2023/09/05 07:49:05;;;;;;;0.60;0.20;;;20.80;14.70;;;;;;4877982;29;20459;-74
2023/09/05 07:51:33;;;;;;;0.60;0.10;;;20.80;13.90;;;;;;4879967;29;20514;-75
2023/09/05 07:54:04;;;;;;;0.60;0.10;;;20.80;13.90;;;;;;4880104;29;20527;-74
2023/09/05 07:56:33;;;;;;;0.60;0.10;;;;;;;;;;4880329;29;20461;-76
2023/09/05 07:59:03;;;;;;;0.60;0.20;;;21.00;15.50;;;;;;4867460;29;21004;-74
2023/09/05 08:01:31;;;;;;;0.60;0.20;;;21.00;15.20;;;;;;4878887;29;21088;-76
2023/09/05 08:03:59;;;;;;;0.60;0.10;;;21.00;16.30;;;;;;4866062;29;20525;-76
2023/09/05 08:06:29;;;;;;;1.17;0.57;;;21.10;16.10;;;;;;4861121;29;20468;-76
2023/09/05 08:08:57;;;;;;;0.60;0.10;;;21.10;15.70;;;;;;4869081;29;20557;-76
2023/09/05 08:11:26;;;;;;;0.60;0.10;;;21.20;15.00;;;;;;4873447;29;20538;-76
2023/09/05 08:13:54;;;;;;;0.60;0.20;;;21.20;14.80;;;;;;4876071;29;20475;-74
2023/09/05 08:16:25;;;;;;;0.90;0.50;;;21.10;14.90;;;;;;4864529;29;20985;-76
2023/09/05 08:18:53;;;;;;;0.60;0.10;;;;;;;;;;4872841;29;20470;-77
2023/09/05 08:21:21;;;;;;;0.60;0.20;;;21.20;16.70;;;;;;4878626;29;20557;-76
2023/09/05 08:23:50;;;;;;;0.67;0.27;;;;;;;;;;4860917;29;20501;-74
2023/09/05 08:26:18;;;;;;;0.60;0.10;;;;;;;;;;4868896;29;20473;-73
2023/09/05 08:28:47;;;;;;;0.60;0.20;;;;;;;;;;4876759;29;20466;-74
2023/09/05 08:31:15;;;;;;;0.87;0.50;;;21.30;16.40;;;;;;4871035;29;20475;-76
2023/09/05 08:33:47;;;;;;;0.60;0.10;;;21.40;17.70;;;;;;4866360;29;20465;-75
2023/09/05 08:36:15;;;;;;;0.60;0.10;;;21.50;18.70;;;;;;4859702;29;20457;-76
2023/09/05 08:38:43;;;;;;;0.70;0.40;;;;;;;;;;4871156;29;20526;-74
2023/09/05 08:41:11;;;;;;;0.60;0.10;;;21.50;17.60;;;;;;4875094;29;20520;-76
2023/09/05 08:43:39;;;;;;;5.27;1.43;;;21.50;16.30;;;;;;4867162;29;20455;-76
2023/09/05 08:46:07;;;;;;;0.60;0.10;;;21.60;16.80;;;;;;4859733;29;20462;-76
2023/09/05 08:48:35;;;;;;;0.60;0.10;;;21.60;18.00;;;;;;4867066;29;20458;-75
2023/09/05 08:51:29;;;;;;;0.60;0.30;;;21.60;18.10;;;;;;4870578;29;20482;-76
2023/09/05 08:54:00;;;;;;;0.60;0.10;;;21.70;19.20;;;;;;4872266;29;20450;-75
2023/09/05 08:56:29;;;;;;;0.60;0.20;;;21.90;20.10;;;;;;4866752;29;20485;-75
2023/09/05 08:58:57;;;;;;;0.60;0.20;;;21.90;20.10;;;;;;4872476;29;20489;-74
2023/09/05 09:01:26;;;;;;;0.60;0.20;;;22.00;19.10;;;;;;4869752;29;20826;-74
2023/09/05 09:03:55;;;;;;;0.70;0.23;;;22.00;18.30;;;;;;4872430;29;20546;-75
2023/09/05 09:06:27;;;;;;;0.73;0.43;;;22.00;17.80;;;;;;4868039;29;20547;-76
2023/09/05 09:08:55;;;;;;;0.70;0.30;;;21.90;17.50;;;;;;4876252;29;20524;-76
2023/09/05 09:11:24;;;;;;;0.80;0.43;;;22.10;17.40;;;;;;4876553;29;20500;-74
2023/09/05 09:13:59;;;;;;;0.60;0.10;;;22.20;15.20;;;;;;4867869;29;20465;-76
2023/09/05 09:16:27;;;;;;;0.60;0.10;;;22.20;16.30;;;;;;4868271;29;20511;-74
2023/09/05 09:19:02;;;;;;;0.60;0.10;;;22.30;16.10;;;;;;4859288;29;20515;-74
2023/09/05 09:21:32;;;;;;;0.60;0.10;;;22.30;15.80;;;;;;4869391;29;20485;-76
2023/09/05 09:24:07;;;;;;;0.60;0.10;;;22.40;14.80;;;;;;4873729;29;20834;-76
2023/09/05 09:26:36;;;;;;;0.73;0.27;;;22.50;15.10;;;;;;4859626;29;21061;-73
2023/09/05 09:29:08;;;;;;;0.70;0.20;;;22.50;14.70;;;;;;4873451;29;20460;-75
2023/09/05 09:31:39;;;;;;;0.60;0.20;;;22.60;15.70;;;;;;4863187;29;20565;-74
2023/09/05 09:34:09;;;;;;;0.60;0.10;;;22.70;16.10;;;;;;4871122;29;20846;-75
2023/09/05 09:36:39;;;;;;;0.60;0.13;;;22.70;24.80;;;;;;4859259;29;20958;-75
2023/09/05 09:39:13;;;;;;;0.60;0.20;;;;;;;;;;4866531;29;20465;-75
2023/09/05 09:41:44;;;;;;;0.60;0.30;;;22.90;13.90;;;;;;4863818;29;20516;-75
2023/09/05 09:44:25;;;;;;;0.80;0.50;;;23.00;14.70;;;;;;4865942;29;20454;-74
2023/09/05 09:46:54;;;;;;;0.70;0.20;;;22.90;12.50;;;;;;4864742;29;20450;-75
2023/09/05 09:49:24;;;;;;;0.70;0.40;;;23.00;12.00;;;;;;4862637;29;20507;-75
2023/09/05 09:51:58;;;;;;;1.07;0.97;;;23.10;12.20;;;;;;4859696;29;20530;-76
2023/09/05 09:54:38;;;;;;;0.87;0.37;;;23.20;11.60;;;;;;4866236;29;21012;-75
2023/09/05 09:57:09;;;;;;;0.60;0.20;;;23.30;10.80;;;;;;4877878;29;20454;-75
2023/09/05 09:59:43;;;;;;;0.60;0.13;;;23.30;11.10;;;;;;4869373;29;20506;-75
2023/09/05 10:02:15;;;;;;;0.70;0.20;;;23.40;9.10;;;;;;4871886;29;20481;-76
2023/09/05 10:04:44;;;;;;;0.60;0.10;;;23.40;16.90;;;;;;4872829;29;20517;-76
2023/09/05 10:07:15;;;;;;;0.63;0.10;;;23.50;9.70;;;;;;4867865;29;20716;-75
2023/09/05 10:09:45;;;;;;;0.70;0.20;;;23.70;9.90;;;;;;4863207;29;20674;-75
2023/09/05 10:12:18;;;;;;;0.70;0.13;;;23.80;9.70;;;;;;4869740;29;20470;-75
2023/09/05 10:14:48;;;;;;;0.70;0.20;;;23.90;7.60;;;;;;4876829;29;20455;-75
2023/09/05 10:17:18;;;;;;;0.70;0.10;;;24.00;8.60;;;;;;4867498;29;20529;-74
2023/09/05 10:19:47;;;;;;;2.77;0.33;;;24.00;6.00;;;;;;4880278;29;20459;-75
2023/09/05 10:22:18;;;;;;;0.70;0.20;;;24.10;6.80;;;;;;4871775;29;20479;-75
2023/09/05 10:24:47;;;;;;;0.80;0.20;;;24.10;2.70;;;;;;4875862;29;20494;-76
2023/09/05 10:27:15;;;;;;;0.70;0.20;;;24.00;1.00;;;;;;4874122;29;20454;-75
2023/09/05 10:29:45;;;;;;;0.70;0.10;;;24.00;8.30;;;;;;4870300;29;20465;-74
2023/09/05 10:32:17;;;;;;;0.70;0.20;;;24.10;1.00;;;;;;4871540;29;20862;-74
2023/09/05 10:34:58;;;;;;;0.70;0.10;;;24.20;1.00;;;;;;4867455;29;20861;-75
2023/09/05 10:37:45;;;;;;;0.60;0.10;;;24.30;1.00;;;;;;4867365;29;20450;-76
2023/09/05 10:40:13;;;;;;;0.70;0.20;;;24.40;1.20;;;;;;4859810;29;20735;-75
2023/09/05 10:42:49;;;;;;;0.80;0.40;;;24.40;9.50;;;;;;4875690;29;20519;-75
2023/09/05 10:45:28;;;;;;;0.70;0.20;;;24.40;1.30;;;;;;4870067;29;20977;-75
2023/09/05 10:48:01;;;;;;;0.70;0.20;;;24.40;2.90;;;;;;4876681;29;21041;-75
2023/09/05 10:50:29;;;;;;;0.70;0.20;;;24.50;3.00;;;;;;4874096;29;20450;-76
2023/09/05 10:53:23;;;;;;;0.70;0.30;;;24.50;1.60;;;;;;4870624;29;20466;-74
2023/09/05 10:55:54;;;;;;;0.70;0.17;;;24.60;2.50;;;;;;4880132;29;20501;-73
2023/09/05 10:58:47;;;;;;;0.70;0.10;;;24.70;2.30;;;;;;4864863;29;20447;-75
2023/09/05 11:01:51;;;;;;;1.10;0.50;;;24.70;1.00;;;;;;4880964;29;20501;-76
2023/09/05 11:04:27;;;;;;;0.70;0.10;;;24.60;1.00;;;;;;4877526;29;20457;-74
2023/09/05 11:06:58;;;;;;;0.80;0.30;;;24.60;1.40;;;;;;4871820;29;20481;-74
2023/09/05 11:09:27;;;;;;;0.90;0.40;;;24.60;2.60;;;;;;4878882;29;20455;-74
2023/09/05 11:11:55;;;;;;;0.70;0.10;;;24.70;1.00;;;;;;4866157;29;20471;-74
2023/09/05 11:14:34;;;;;;;0.70;0.10;;;24.80;1.00;;;;;;4876631;29;20450;-77
2023/09/05 11:17:02;;;;;;;0.70;0.10;;;24.80;8.50;;;;;;4871272;29;20946;-76
2023/09/05 11:19:39;;;;;;;0.70;0.20;;;24.90;1.00;;;;;;4879475;29;20958;-75
2023/09/05 11:22:11;;;;;;;0.70;0.10;;;24.90;1.00;;;;;;4875361;29;20467;-76
2023/09/05 11:24:46;;;;;;;0.70;0.20;;;25.10;1.10;;;;;;4869819;29;20450;-75
2023/09/05 11:27:19;;;;;;;0.70;0.20;;;25.00;1.00;;;;;;4874141;29;20936;-76
2023/09/05 11:29:51;;;;;;;0.70;0.13;;;25.10;1.10;;;;;;4861813;29;20800;-74
2023/09/05 11:32:20;;;;;;;1.33;1.23;;;25.20;1.00;;;;;;4861474;29;20471;-75
2023/09/05 11:34:48;;;;;;;1.20;0.43;;;25.20;1.00;;;;;;4867185;29;20457;-76
2023/09/05 11:37:18;;;;;;;1.00;0.37;;;25.20;5.50;;;;;;4879922;29;20482;-75
2023/09/05 11:39:49;;;;;;;0.80;0.20;;;25.30;1.00;;;;;;4870094;29;20482;-74
2023/09/05 11:42:22;;;;;;;0.70;0.20;;;25.30;1.00;;;;;;4869106;29;20482;-76
2023/09/05 11:44:54;;;;;;;0.70;0.10;;;25.40;7.40;;;;;;4874992;29;20541;-75
2023/09/05 11:47:23;;;;;;;0.70;0.20;;;25.50;1.00;;;;;;4865504;29;20494;-76
2023/09/05 11:49:52;;;;;;;0.70;0.20;;;25.60;1.00;;;;;;4862762;29;20455;-76
2023/09/05 11:52:21;;;;;;;0.70;0.10;;;25.70;1.00;;;;;;4860935;29;20472;-75
2023/09/05 11:54:52;;;;;;;1.27;1.17;;;25.70;6.10;;;;;;4864259;29;20439;-77
2023/09/05 11:57:22;;;;;;;0.70;0.10;;;25.60;1.00;;;;;;4875517;29;20462;-75
2023/09/05 11:59:53;;;;;;;0.70;0.10;;;25.60;4.30;;;;;;4868188;29;20995;-76
2023/09/05 12:02:22;;;;;;;0.90;0.47;;;25.70;1.00;;;;;;4876039;29;20510;-75
2023/09/05 12:04:50;;;;;;;0.80;0.20;;;25.70;3.90;;;;;;4868145;29;20455;-75
2023/09/05 12:07:23;;;;;;;0.70;0.20;;;25.70;1.00;;;;;;4869046;29;20511;-75
2023/09/05 12:09:59;;;;;;;0.70;0.30;;;;;;;;;;4873820;29;20459;-75
2023/09/05 12:12:34;;;;;;;0.70;0.20;;;25.70;1.00;;;;;;4877040;29;20573;-74
2023/09/05 12:15:05;;;;;;;1.10;0.53;;;;;;;;;;4874587;29;20458;-76
2023/09/05 12:17:33;;;;;;;0.70;0.20;;;25.80;1.00;;;;;;4873712;29;20459;-76
2023/09/05 12:20:10;;;;;;;0.70;0.20;;;25.80;1.00;;;;;;4872085;29;20514;-75
2023/09/05 12:22:38;;;;;;;0.70;0.20;;;;;;;;;;4879806;29;20556;-75
2023/09/05 12:25:24;;;;;;;0.70;0.10;;;25.90;1.00;;;;;;4877897;29;20500;-78
2023/09/05 12:28:14;;;;;;;0.80;0.30;;;25.90;1.00;;;;;;4872944;29;20450;-76
2023/09/05 12:30:42;;;;;;;0.80;0.30;;;25.90;1.00;;;;;;4880294;29;20470;-75
2023/09/05 12:33:10;;;;;;;0.70;0.10;;;26.00;1.00;;;;;;4878687;29;20978;-75
2023/09/05 12:35:39;;;;;;;0.70;0.10;;;;;;;;;;4878735;29;20458;-75
2023/09/05 12:38:09;;;;;;;0.70;0.20;;;26.10;1.00;;;;;;4879004;29;20514;-76
2023/09/05 12:40:40;;;;;;;0.70;0.20;;;26.20;1.00;;;;;;4878253;29;20477;-75
2023/09/05 12:43:07;;;;;;;0.80;0.30;;;26.30;1.00;;;;;;4861022;29;20532;-75
2023/09/05 12:45:36;;;;;;;0.70;0.10;;;;;;;;;;4869149;29;20464;-75
2023/09/05 12:48:07;;;;;;;0.70;0.20;;;26.40;1.00;;;;;;4873185;29;20457;-75
2023/09/05 12:50:36;;;;;;;0.70;0.20;;;;;;;;;;4868673;29;20534;-76
2023/09/05 12:53:05;;;;;;;0.70;0.10;;;26.50;1.00;;;;;;4878547;29;20541;-75
2023/09/05 12:55:35;;;;;;;0.70;0.20;;;26.50;1.00;;;;;;4862239;29;20535;-75
2023/09/05 12:58:09;;;;;;;0.70;0.20;;;26.50;1.00;;;;;;4868228;29;20539;-75
2023/09/05 13:00:37;;;;;;;0.70;0.20;;;26.50;1.00;;;;;;4872793;29;20488;-75
2023/09/05 13:03:07;;;;;;;0.70;0.10;;;26.50;1.00;;;;;;4874584;29;20459;-76
2023/09/05 13:05:35;;;;;;;0.70;0.10;;;26.60;1.00;;;;;;4879745;29;20547;-75
2023/09/05 13:08:04;;;;;;;0.70;0.10;;;26.60;1.00;;;;;;4875364;29;20497;-74
2023/09/05 13:10:32;;;;;;;0.70;0.10;;;26.70;1.00;;;;;;4864721;29;20475;-75
2023/09/05 13:13:00;;;;;;;0.70;0.20;;;26.70;1.00;;;;;;4862542;29;20524;-76
2023/09/05 13:15:34;;;;;;;0.70;0.20;;;26.80;1.00;;;;;;4877107;29;20462;-76
2023/09/05 13:18:02;;;;;;;0.70;0.10;;;26.80;1.00;;;;;;4860379;29;20460;-76
2023/09/05 13:20:30;;;;;;;0.70;0.20;;;26.90;1.00;;;;;;4864883;29;20452;-75
2023/09/05 13:22:59;;;;;;;0.70;0.27;;;27.00;1.00;;;;;;4872182;29;20480;-75
2023/09/05 13:25:32;;;;;;;0.70;0.13;;;27.00;1.00;;;;;;4879552;29;20466;-74
2023/09/05 13:28:04;;;;;;;0.70;0.10;;;;;;;;;;4869482;29;20545;-74
2023/09/05 13:30:34;;;;;;;1.17;1.07;;;;;;;;;;4860410;29;20483;-76
2023/09/05 13:33:03;;;;;;;0.70;0.10;;;27.20;1.00;;;;;;4873280;29;20455;-76
2023/09/05 13:35:32;;;;;;;0.70;0.20;;;27.20;1.00;;;;;;4877357;29;20463;-76
2023/09/05 13:38:00;;;;;;;0.70;0.10;;;27.20;1.00;;;;;;4860365;29;20491;-76
2023/09/05 13:40:29;;;;;;;0.70;0.20;;;;;;;;;;4859784;29;20474;-76
2023/09/05 13:42:58;;;;;;;0.70;0.20;;;27.20;1.00;;;;;;4868336;29;20459;-76
2023/09/05 13:45:26;;;;;;;0.70;0.10;;;27.20;1.00;;;;;;4860681;29;20488;-76
2023/09/05 13:47:56;;;;;;;0.70;0.10;;;27.20;1.00;;;;;;4861027;29;21000;-76
2023/09/05 13:50:25;;;;;;;0.70;0.27;;;27.20;1.00;;;;;;4862181;29;20481;-75
2023/09/05 13:52:53;;;;;;;0.70;0.20;;;27.20;1.00;;;;;;4872484;29;20886;-75
2023/09/05 13:55:21;;;;;;;0.70;0.20;;;;;;;;;;4872868;29;20460;-75
2023/09/05 13:57:50;;;;;;;0.70;0.10;;;27.20;1.00;;;;;;4861644;29;20478;-76
2023/09/05 14:00:21;;;;;;;2.13;0.57;;;27.30;1.00;;;;;;4861109;29;21020;-75
2023/09/05 14:02:49;;;;;;;0.70;0.10;;;27.30;1.00;;;;;;4860335;29;20450;-74
2023/09/05 14:05:19;;;;;;;0.70;0.10;;;;;;;;;;4859611;29;20543;-76
2023/09/05 14:07:47;;;;;;;0.70;0.20;;;27.40;1.00;;;;;;4870401;29;20527;-76
2023/09/05 14:10:15;;;;;;;0.70;0.10;;;27.30;1.00;;;;;;4865061;29;20456;-75
2023/09/05 14:12:44;;;;;;;0.70;0.10;;;27.40;1.00;;;;;;4862170;29;20454;-75
2023/09/05 14:15:12;;;;;;;0.80;0.33;;;27.40;1.00;;;;;;4867583;29;20466;-75
2023/09/05 14:17:41;;;;;;;0.70;0.10;;;27.40;1.00;;;;;;4875935;29;20453;-75
2023/09/05 14:20:14;;;;;;;0.70;0.20;;;;;;;;;;4878263;29;20475;-75
2023/09/05 14:22:43;;;;;;;0.70;0.20;;;27.50;1.00;;;;;;4881781;29;20479;-76
2023/09/05 14:25:15;;;;;;;0.70;0.20;;;;;;;;;;4872395;29;20527;-76
2023/09/05 14:27:43;;;;;;;0.80;0.70;;;27.70;1.00;;;;;;4873331;29;20487;-75
2023/09/05 14:30:12;;;;;;;0.70;0.20;;;27.70;1.00;;;;;;4875260;29;20470;-76
2023/09/05 14:32:40;;;;;;;0.70;0.10;;;27.70;1.00;;;;;;4879989;29;20999;-75
2023/09/05 14:35:20;;;;;;;0.70;0.20;;;;;;;;;;4870153;29;20449;-76
2023/09/05 14:37:50;;;;;;;0.70;0.10;;;27.80;1.00;;;;;;4882444;29;20828;-74
2023/09/05 14:40:19;;;;;;;0.70;0.20;;;;;;;;;;4869208;29;20922;-76
2023/09/05 14:42:47;;;;;;;0.80;0.30;;;27.80;1.00;;;;;;4870656;29;20469;-76
2023/09/05 14:45:15;;;;;;;0.70;0.20;;;27.90;1.00;;;;;;4874917;29;20471;-77
2023/09/05 14:47:43;;;;;;;0.70;0.10;;;27.90;1.00;;;;;;4873900;29;20582;-79
2023/09/05 14:50:11;;;;;;;0.70;0.10;;;;;;;;;;4877121;29;20453;-77
2023/09/05 14:52:42;;;;;;;0.70;0.20;;;;;;;;;;4865976;29;20465;-76
2023/09/05 14:55:12;;;;;;;0.70;0.13;;;28.20;1.00;;;;;;4872172;29;20532;-75
2023/09/05 14:57:41;;;;;;;0.90;0.70;;;28.20;1.00;;;;;;4871092;29;20484;-77
2023/09/05 15:00:11;;;;;;;0.70;0.20;;;28.20;1.00;;;;;;4875759;29;20517;-76
2023/09/05 15:02:39;;;;;;;0.70;0.10;;;28.20;1.00;;;;;;4874225;29;20838;-76
2023/09/05 15:05:09;;;;;;;0.70;0.20;;;;;;;;;;4875345;29;20449;-77
2023/09/05 15:07:37;;;;;;;0.70;0.20;;;28.20;1.00;;;;;;4876294;29;20501;-76
2023/09/05 15:10:07;;;;;;;0.70;0.10;;;28.20;1.00;;;;;;4863998;29;20486;-74
2023/09/05 15:12:37;;;;;;;0.70;0.17;;;28.40;1.00;;;;;;4862742;29;20482;-77
2023/09/05 15:15:05;;;;;;;0.70;0.20;;;28.40;1.00;;;;;;4877230;29;20541;-76
2023/09/05 15:17:35;;;;;;;0.70;0.10;;;28.50;1.00;;;;;;4870883;29;20497;-74
2023/09/05 15:20:04;;;;;;;0.70;0.10;;;28.50;1.00;;;;;;4876267;29;20607;-77
2023/09/05 15:22:32;;;;;;;1.47;0.87;;;28.50;1.00;;;;;;4879064;29;20518;-76
2023/09/05 15:25:12;;;;;;;0.70;0.17;;;28.60;1.00;;;;;;4876188;29;20470;-76
2023/09/05 15:27:41;;;;;;;0.70;0.20;;;28.80;1.00;;;;;;4872244;29;20516;-76
2023/09/05 15:30:11;;;;;;;0.70;0.20;;;28.80;1.00;;;;;;4881689;29;20490;-75
2023/09/05 15:32:39;;;;;;;0.70;0.10;;;29.10;1.00;;;;;;4873513;29;20445;-77
2023/09/05 15:35:08;;;;;;;0.80;0.27;;;;;;;;;;4863157;29;20516;-75
2023/09/05 15:37:36;;;;;;;0.70;0.10;;;27.40;1.00;;;;;;4863748;29;20457;-75
2023/09/05 15:40:05;;;;;;;0.70;0.20;;;29.40;1.00;;;;;;4870706;29;20459;-77
2023/09/05 15:42:33;;;;;;;0.70;0.23;;;29.40;1.00;;;;;;4878762;29;20524;-75
2023/09/05 15:45:05;;;;;;;0.70;0.10;;;29.40;1.00;;;;;;4875062;29;20499;-74
2023/09/05 15:47:33;;;;;;;0.70;0.20;;;29.60;1.00;;;;;;4877354;29;20779;-77
2023/09/05 15:50:01;;;;;;;0.70;0.20;;;29.60;1.00;;;;;;4874121;29;20473;-75
2023/09/05 15:52:29;;;;;;;0.70;0.10;;;29.80;1.00;;;;;;4867815;29;20475;-77
2023/09/05 15:54:57;;;;;;;0.70;0.13;;;29.80;1.00;;;;;;4875440;29;20505;-75
2023/09/05 15:57:25;;;;;;;0.70;0.10;;;29.90;1.00;;;;;;4880445;29;20454;-76
2023/09/05 15:59:52;;;;;;;1.43;0.60;;;29.90;1.00;;;;;;4871254;29;20463;-77
2023/09/05 16:02:21;;;;;;;0.70;0.20;;;29.90;1.00;;;;;;4878110;29;20522;-77
2023/09/05 16:04:49;;;;;;;0.70;0.20;;;29.90;1.00;;;;;;4885156;29;20509;-77
2023/09/05 16:07:17;;;;;;;0.70;0.13;;;30.00;1.00;;;;;;4886449;29;20479;-76
2023/09/05 16:09:45;;;;;;;0.70;0.20;;;30.10;1.00;;;;;;4879193;29;20549;-76
2023/09/05 16:12:13;;;;;;;0.70;0.10;;;30.20;1.00;;;;;;4866238;29;20467;-76
2023/09/05 16:14:44;;;;;;;0.70;0.10;;;30.30;1.00;;;;;;4880968;29;20454;-77
2023/09/05 16:17:11;;;;;;;0.70;0.20;;;30.30;1.00;;;;;;4889577;29;20450;-76
2023/09/05 16:19:41;;;;;;;0.70;0.10;;;30.60;1.00;;;;;;4889689;29;20550;-75
2023/09/05 16:22:08;;;;;;;0.70;0.17;;;30.70;1.00;;;;;;4880478;29;20470;-73
2023/09/05 16:24:37;;;;;;;0.70;0.20;;;30.90;1.00;;;;;;4883732;29;20490;-75
2023/09/05 16:27:05;;;;;;;0.70;0.20;;;30.80;1.00;;;;;;4876542;29;20443;-74
2023/09/05 16:29:33;;;;;;;0.70;0.20;;;;;;;;;;4878813;29;20506;-75
2023/09/05 16:32:05;;;;;;;0.70;0.20;;;30.80;1.00;;;;;;4880434;29;20583;-75
2023/09/05 16:34:33;;;;;;;0.70;0.10;;;30.60;1.00;;;;;;4877022;29;20473;-75
2023/09/05 16:37:04;;;;;;;0.70;0.10;;;30.60;1.00;;;;;;4876782;29;20462;-74
2023/09/05 16:39:33;;;;;;;0.70;0.10;;;30.60;1.00;;;;;;4879151;29;20834;-74
2023/09/05 16:42:01;;;;;;;0.70;0.20;;;30.50;1.00;;;;;;4877572;29;20477;-71
2023/09/05 16:44:29;;;;;;;0.70;0.20;;;30.50;1.00;;;;;;4875399;29;20557;-74
2023/09/05 16:46:57;;;;;;;0.70;0.20;;;30.60;1.00;;;;;;4879243;29;20537;-71
2023/09/05 16:49:25;;;;;;;0.70;0.10;;;30.60;1.00;;;;;;4875634;29;20541;-72
2023/09/05 16:51:53;;;;;;;0.70;0.20;;;30.60;1.00;;;;;;4874144;29;20482;-71
2023/09/05 16:54:23;;;;;;;0.70;0.20;;;30.50;1.00;;;;;;4871853;29;20438;-73
2023/09/05 16:56:51;;;;;;;0.70;0.10;;;30.40;1.00;;;;;;4871926;29;20455;-72
2023/09/05 16:59:25;;;;;;;0.70;0.10;;;30.20;1.00;;;;;;4874951;29;20514;-72
2023/09/05 17:01:53;;;;;;;0.70;0.10;;;29.90;1.00;;;;;;4875439;29;21093;-73
2023/09/05 17:04:22;;;;;;;1.47;1.03;;;29.60;1.00;;;;;;4878058;29;20510;-71
2023/09/05 17:06:55;;;;;;;0.70;0.20;;;29.40;1.00;;;;;;4879134;29;20446;-74
2023/09/05 17:09:25;;;;;;;0.70;0.10;;;29.40;1.00;;;;;;4878344;29;20846;-73
2023/09/05 17:11:53;;;;;;;0.70;0.20;;;29.30;1.00;;;;;;4878471;29;20486;-72
2023/09/05 17:14:21;;;;;;;0.70;0.10;;;29.00;1.00;;;;;;4876548;29;20953;-72
2023/09/05 17:16:49;;;;;;;0.70;0.10;;;29.00;1.00;;;;;;4878326;29;20802;-72
2023/09/05 17:19:17;;;;;;;0.70;0.10;;;28.90;1.00;;;;;;4877978;29;20873;-72